sensor_id;sensor_type;location;lat;lon;timestamp;pressure;altitude;pressure_sealevel;temperature;humidity
33161;BME280;19522;45.656;11.302;2022-07-29T00:01:07;98340.44;;;20.54;76.74
33161;BME280;19522;45.656;11.302;2022-07-29T00:03:32;98324.63;;;20.71;76.54
33161;BME280;19522;45.656;11.302;2022-07-29T00:05:58;98301.94;;;20.86;76.11
33161;BME280;19522;45.656;11.302;2022-07-29T00:08:23;98315.63;;;20.76;76.10
33161;BME280;19522;45.656;11.302;2022-07-29T00:10:49;98311.25;;;20.58;78.81
33161;BME280;19522;45.656;11.302;2022-07-29T00:13:14;98306.69;;;20.47;78.26
33161;BME280;19522;45.656;11.302;2022-07-29T00:15:40;98269.19;;;20.23;78.54
33161;BME280;19522;45.656;11.302;2022-07-29T00:18:06;98224.81;;;20.03;79.40
33161;BME280;19522;45.656;11.302;2022-07-29T00:20:31;98257.88;;;20.47;77.59
33161;BME280;19522;45.656;11.302;2022-07-29T00:22:57;98256.28;;;20.07;79.50
33161;BME280;19522;45.656;11.302;2022-07-29T00:25:22;98245.56;;;20.11;79.64
33161;BME280;19522;45.656;11.302;2022-07-29T00:27:48;98266.03;;;20.37;81.31
33161;BME280;19522;45.656;11.302;2022-07-29T00:30:14;98266.44;;;20.23;79.54
33161;BME280;19522;45.656;11.302;2022-07-29T00:32:39;98247.44;;;20.27;81.19
33161;BME280;19522;45.656;11.302;2022-07-29T00:35:06;98212.41;;;19.83;80.99
33161;BME280;19522;45.656;11.302;2022-07-29T00:37:50;98257.34;;;20.06;82.65
33161;BME280;19522;45.656;11.302;2022-07-29T00:40:16;98253.13;;;19.98;82.05
33161;BME280;19522;45.656;11.302;2022-07-29T00:42:47;98239.53;;;19.74;81.30
33161;BME280;19522;45.656;11.302;2022-07-29T00:45:13;98227.94;;;19.89;81.92
33161;BME280;19522;45.656;11.302;2022-07-29T00:47:39;98231.28;;;19.91;82.46
33161;BME280;19522;45.656;11.302;2022-07-29T00:50:06;98214.50;;;19.76;83.41
33161;BME280;19522;45.656;11.302;2022-07-29T00:52:33;98227.50;;;19.98;82.27
33161;BME280;19522;45.656;11.302;2022-07-29T00:54:59;98167.88;;;19.69;80.58
33161;BME280;19522;45.656;11.302;2022-07-29T00:57:24;98199.56;;;19.89;81.57
33161;BME280;19522;45.656;11.302;2022-07-29T00:59:50;98227.50;;;19.98;81.02
33161;BME280;19522;45.656;11.302;2022-07-29T01:02:16;98211.63;;;20.05;80.37
33161;BME280;19522;45.656;11.302;2022-07-29T01:04:41;98206.53;;;19.97;79.89
33161;BME280;19522;45.656;11.302;2022-07-29T01:07:07;98211.72;;;19.93;78.79
33161;BME280;19522;45.656;11.302;2022-07-29T01:09:34;98200.22;;;19.79;79.71
33161;BME280;19522;45.656;11.302;2022-07-29T01:12:01;98228.44;;;19.86;80.51
33161;BME280;19522;45.656;11.302;2022-07-29T01:14:28;98229.03;;;19.88;80.50
33161;BME280;19522;45.656;11.302;2022-07-29T01:23:16;98221.44;;;19.78;81.75
33161;BME280;19522;45.656;11.302;2022-07-29T01:31:12;98159.81;;;19.28;82.56
33161;BME280;19522;45.656;11.302;2022-07-29T01:33:43;98219.94;;;19.71;82.90
33161;BME280;19522;45.656;11.302;2022-07-29T01:36:18;98137.59;;;19.13;83.15
33161;BME280;19522;45.656;11.302;2022-07-29T01:38:52;98218.13;;;19.59;83.23
33161;BME280;19522;45.656;11.302;2022-07-29T01:41:20;98215.06;;;19.78;83.03
33161;BME280;19522;45.656;11.302;2022-07-29T01:43:53;98190.63;;;19.42;84.01
33161;BME280;19522;45.656;11.302;2022-07-29T01:46:27;98192.03;;;19.45;83.36
33161;BME280;19522;45.656;11.302;2022-07-29T01:48:57;98197.22;;;19.41;84.26
33161;BME280;19522;45.656;11.302;2022-07-29T01:51:32;98223.06;;;19.40;84.40
33161;BME280;19522;45.656;11.302;2022-07-29T01:54:13;98221.72;;;19.43;83.68
33161;BME280;19522;45.656;11.302;2022-07-29T01:56:42;98207.06;;;19.37;84.05
33161;BME280;19522;45.656;11.302;2022-07-29T01:59:09;98193.31;;;19.59;83.02
33161;BME280;19522;45.656;11.302;2022-07-29T02:01:37;98229.81;;;19.67;84.03
33161;BME280;19522;45.656;11.302;2022-07-29T02:04:06;98214.75;;;19.74;83.21
33161;BME280;19522;45.656;11.302;2022-07-29T02:06:34;98204.03;;;19.78;82.59
33161;BME280;19522;45.656;11.302;2022-07-29T02:09:03;98211.94;;;19.69;82.89
33161;BME280;19522;45.656;11.302;2022-07-29T02:11:31;98212.97;;;19.46;84.10
33161;BME280;19522;45.656;11.302;2022-07-29T02:14:00;98188.09;;;19.41;83.79
33161;BME280;19522;45.656;11.302;2022-07-29T02:16:29;98216.28;;;19.48;83.25
33161;BME280;19522;45.656;11.302;2022-07-29T02:18:57;98174.00;;;19.37;81.91
33161;BME280;19522;45.656;11.302;2022-07-29T02:21:25;98207.41;;;19.63;81.65
33161;BME280;19522;45.656;11.302;2022-07-29T02:23:52;98199.06;;;19.36;82.99
33161;BME280;19522;45.656;11.302;2022-07-29T02:26:23;98172.94;;;19.38;83.23
33161;BME280;19522;45.656;11.302;2022-07-29T02:28:51;98204.44;;;19.65;81.14
33161;BME280;19522;45.656;11.302;2022-07-29T02:31:21;98202.41;;;19.38;83.75
33161;BME280;19522;45.656;11.302;2022-07-29T02:33:48;98134.16;;;18.89;83.08
33161;BME280;19522;45.656;11.302;2022-07-29T02:36:16;98172.78;;;19.28;82.63
33161;BME280;19522;45.656;11.302;2022-07-29T02:38:42;98150.59;;;19.18;80.40
33161;BME280;19522;45.656;11.302;2022-07-29T02:41:26;98200.50;;;19.60;80.71
33161;BME280;19522;45.656;11.302;2022-07-29T02:44:02;98163.75;;;19.33;80.12
33161;BME280;19522;45.656;11.302;2022-07-29T02:46:31;98207.63;;;19.56;80.64
33161;BME280;19522;45.656;11.302;2022-07-29T02:49:04;98198.63;;;19.44;81.07
33161;BME280;19522;45.656;11.302;2022-07-29T02:51:43;98186.38;;;19.35;82.00
33161;BME280;19522;45.656;11.302;2022-07-29T02:54:14;98189.59;;;19.49;80.01
33161;BME280;19522;45.656;11.302;2022-07-29T02:56:44;98211.78;;;19.59;79.39
33161;BME280;19522;45.656;11.302;2022-07-29T02:59:11;98213.78;;;19.46;80.80
33161;BME280;19522;45.656;11.302;2022-07-29T03:01:40;98210.28;;;19.34;82.19
33161;BME280;19522;45.656;11.302;2022-07-29T03:04:08;98228.81;;;19.56;82.96
33161;BME280;19522;45.656;11.302;2022-07-29T03:06:35;98183.84;;;19.50;81.04
33161;BME280;19522;45.656;11.302;2022-07-29T03:09:02;98230.94;;;19.71;82.40
33161;BME280;19522;45.656;11.302;2022-07-29T03:11:29;98210.66;;;19.21;83.15
33161;BME280;19522;45.656;11.302;2022-07-29T03:13:55;98212.81;;;19.36;84.30
33161;BME280;19522;45.656;11.302;2022-07-29T03:16:21;98240.56;;;19.51;83.45
33161;BME280;19522;45.656;11.302;2022-07-29T03:18:49;98227.31;;;19.48;84.12
33161;BME280;19522;45.656;11.302;2022-07-29T03:21:15;98223.63;;;19.59;82.53
33161;BME280;19522;45.656;11.302;2022-07-29T03:23:44;98220.66;;;19.27;84.22
33161;BME280;19522;45.656;11.302;2022-07-29T03:26:11;98203.06;;;19.11;84.51
33161;BME280;19522;45.656;11.302;2022-07-29T03:28:36;98230.50;;;19.23;84.12
33161;BME280;19522;45.656;11.302;2022-07-29T03:31:02;98220.47;;;19.17;83.86
33161;BME280;19522;45.656;11.302;2022-07-29T03:33:27;98207.81;;;19.15;83.85
33161;BME280;19522;45.656;11.302;2022-07-29T03:35:54;98218.16;;;19.25;83.05
33161;BME280;19522;45.656;11.302;2022-07-29T03:38:23;98217.16;;;19.31;82.08
33161;BME280;19522;45.656;11.302;2022-07-29T03:41:01;98225.34;;;19.26;80.55
33161;BME280;19522;45.656;11.302;2022-07-29T03:43:30;98201.31;;;19.05;81.45
33161;BME280;19522;45.656;11.302;2022-07-29T03:45:57;98229.31;;;19.19;82.53
33161;BME280;19522;45.656;11.302;2022-07-29T03:48:26;98200.28;;;19.11;82.35
33161;BME280;19522;45.656;11.302;2022-07-29T03:50:55;98229.50;;;19.12;82.90
33161;BME280;19522;45.656;11.302;2022-07-29T03:53:21;98227.41;;;19.19;82.47
33161;BME280;19522;45.656;11.302;2022-07-29T03:55:53;98219.84;;;19.26;81.33
33161;BME280;19522;45.656;11.302;2022-07-29T03:58:20;98208.66;;;19.33;81.25
33161;BME280;19522;45.656;11.302;2022-07-29T04:00:46;98225.81;;;19.40;80.73
33161;BME280;19522;45.656;11.302;2022-07-29T04:03:13;98244.94;;;19.47;81.50
33161;BME280;19522;45.656;11.302;2022-07-29T04:05:39;98243.53;;;19.27;80.95
33161;BME280;19522;45.656;11.302;2022-07-29T04:08:04;98240.03;;;19.32;80.51
33161;BME280;19522;45.656;11.302;2022-07-29T04:10:30;98233.66;;;19.31;81.28
33161;BME280;19522;45.656;11.302;2022-07-29T04:12:56;98196.63;;;19.22;81.97
33161;BME280;19522;45.656;11.302;2022-07-29T04:15:21;98203.53;;;19.25;80.98
33161;BME280;19522;45.656;11.302;2022-07-29T04:17:47;98226.66;;;19.24;82.00
33161;BME280;19522;45.656;11.302;2022-07-29T04:20:12;98243.34;;;19.34;82.88
33161;BME280;19522;45.656;11.302;2022-07-29T04:22:39;98238.31;;;19.48;80.97
33161;BME280;19522;45.656;11.302;2022-07-29T04:25:05;98200.47;;;19.38;79.94
33161;BME280;19522;45.656;11.302;2022-07-29T04:27:31;98214.72;;;19.52;78.91
33161;BME280;19522;45.656;11.302;2022-07-29T04:29:56;98237.44;;;19.82;78.20
33161;BME280;19522;45.656;11.302;2022-07-29T04:32:22;98209.38;;;19.45;78.12
33161;BME280;19522;45.656;11.302;2022-07-29T04:34:47;98233.75;;;19.37;78.61
33161;BME280;19522;45.656;11.302;2022-07-29T04:37:13;98227.50;;;19.41;78.54
33161;BME280;19522;45.656;11.302;2022-07-29T04:39:38;98228.56;;;19.23;80.21
33161;BME280;19522;45.656;11.302;2022-07-29T04:42:04;98231.59;;;19.22;79.84
33161;BME280;19522;45.656;11.302;2022-07-29T04:44:30;98241.09;;;19.31;79.63
33161;BME280;19522;45.656;11.302;2022-07-29T04:46:56;98246.34;;;19.50;79.78
33161;BME280;19522;45.656;11.302;2022-07-29T04:49:22;98228.81;;;19.39;79.80
33161;BME280;19522;45.656;11.302;2022-07-29T04:51:47;98227.06;;;19.50;80.45
33161;BME280;19522;45.656;11.302;2022-07-29T04:54:12;98229.81;;;19.67;78.76
33161;BME280;19522;45.656;11.302;2022-07-29T04:56:38;98239.63;;;19.80;77.83
33161;BME280;19522;45.656;11.302;2022-07-29T04:59:03;98217.78;;;19.39;80.56
33161;BME280;19522;45.656;11.302;2022-07-29T05:01:29;98218.50;;;19.29;81.93
33161;BME280;19522;45.656;11.302;2022-07-29T05:03:54;98255.19;;;19.52;81.79
33161;BME280;19522;45.656;11.302;2022-07-29T05:06:20;98240.50;;;19.46;82.30
33161;BME280;19522;45.656;11.302;2022-07-29T05:08:45;98235.34;;;19.50;81.10
33161;BME280;19522;45.656;11.302;2022-07-29T05:11:11;98241.97;;;19.54;81.31
33161;BME280;19522;45.656;11.302;2022-07-29T05:13:36;98214.50;;;19.37;81.58
33161;BME280;19522;45.656;11.302;2022-07-29T05:16:02;98256.97;;;19.80;81.08
33161;BME280;19522;45.656;11.302;2022-07-29T05:18:27;98262.41;;;19.92;79.36
33161;BME280;19522;45.656;11.302;2022-07-29T05:20:53;98223.59;;;19.93;77.92
33161;BME280;19522;45.656;11.302;2022-07-29T05:23:19;98244.25;;;20.13;78.11
33161;BME280;19522;45.656;11.302;2022-07-29T05:25:44;98263.03;;;20.38;77.50
33161;BME280;19522;45.656;11.302;2022-07-29T05:28:11;98267.94;;;20.59;75.60
33161;BME280;19522;45.656;11.302;2022-07-29T05:30:37;98268.41;;;20.50;75.59
33161;BME280;19522;45.656;11.302;2022-07-29T05:33:02;98243.84;;;20.27;76.63
33161;BME280;19522;45.656;11.302;2022-07-29T05:35:28;98276.03;;;20.43;77.04
33161;BME280;19522;45.656;11.302;2022-07-29T05:37:53;98229.22;;;20.26;76.23
33161;BME280;19522;45.656;11.302;2022-07-29T05:40:19;98228.28;;;20.37;74.84
33161;BME280;19522;45.656;11.302;2022-07-29T05:42:45;98225.25;;;20.39;74.72
33161;BME280;19522;45.656;11.302;2022-07-29T05:45:11;98247.28;;;20.61;74.20
33161;BME280;19522;45.656;11.302;2022-07-29T05:47:36;98256.50;;;20.94;73.47
33161;BME280;19522;45.656;11.302;2022-07-29T05:50:02;98262.91;;;21.00;72.50
33161;BME280;19522;45.656;11.302;2022-07-29T05:52:29;98235.25;;;20.73;72.27
33161;BME280;19522;45.656;11.302;2022-07-29T05:54:54;98269.97;;;20.91;72.25
33161;BME280;19522;45.656;11.302;2022-07-29T05:57:23;98272.09;;;21.11;72.60
33161;BME280;19522;45.656;11.302;2022-07-29T05:59:50;98265.78;;;21.15;73.15
33161;BME280;19522;45.656;11.302;2022-07-29T06:02:16;98257.09;;;21.01;71.36
33161;BME280;19522;45.656;11.302;2022-07-29T06:04:42;98269.34;;;21.11;72.12
33161;BME280;19522;45.656;11.302;2022-07-29T06:07:08;98266.94;;;21.20;73.42
33161;BME280;19522;45.656;11.302;2022-07-29T06:09:34;98273.69;;;21.34;72.63
33161;BME280;19522;45.656;11.302;2022-07-29T06:11:59;98264.78;;;21.27;72.24
33161;BME280;19522;45.656;11.302;2022-07-29T06:14:25;98269.63;;;21.47;72.59
33161;BME280;19522;45.656;11.302;2022-07-29T06:16:52;98249.88;;;21.60;70.37
33161;BME280;19522;45.656;11.302;2022-07-29T06:19:18;98218.31;;;21.51;70.51
33161;BME280;19522;45.656;11.302;2022-07-29T06:21:45;98239.13;;;21.64;70.75
33161;BME280;19522;45.656;11.302;2022-07-29T06:24:12;98249.63;;;21.62;70.48
33161;BME280;19522;45.656;11.302;2022-07-29T06:26:38;98260.09;;;21.60;70.01
33161;BME280;19522;45.656;11.302;2022-07-29T06:29:05;98266.53;;;21.71;70.15
33161;BME280;19522;45.656;11.302;2022-07-29T06:31:30;98216.94;;;21.54;69.74
33161;BME280;19522;45.656;11.302;2022-07-29T06:33:56;98275.91;;;22.18;68.54
33161;BME280;19522;45.656;11.302;2022-07-29T06:36:21;98256.09;;;22.36;66.42
33161;BME280;19522;45.656;11.302;2022-07-29T06:38:47;98257.34;;;22.61;66.02
33161;BME280;19522;45.656;11.302;2022-07-29T06:41:12;98264.59;;;22.83;65.43
33161;BME280;19522;45.656;11.302;2022-07-29T06:43:42;98253.53;;;22.98;66.34
33161;BME280;19522;45.656;11.302;2022-07-29T06:46:10;98270.50;;;23.54;64.57
33161;BME280;19522;45.656;11.302;2022-07-29T06:48:36;98260.75;;;23.87;63.08
33161;BME280;19522;45.656;11.302;2022-07-29T06:51:03;98263.44;;;24.23;60.58
33161;BME280;19522;45.656;11.302;2022-07-29T06:53:29;98254.50;;;24.47;60.60
33161;BME280;19522;45.656;11.302;2022-07-29T06:55:55;98258.75;;;24.84;59.18
33161;BME280;19522;45.656;11.302;2022-07-29T06:58:21;98233.09;;;25.03;58.76
33161;BME280;19522;45.656;11.302;2022-07-29T07:00:47;98268.06;;;25.78;57.75
33161;BME280;19522;45.656;11.302;2022-07-29T07:03:13;98245.53;;;26.04;54.66
33161;BME280;19522;45.656;11.302;2022-07-29T07:05:39;98231.06;;;26.02;54.53
33161;BME280;19522;45.656;11.302;2022-07-29T07:08:05;98257.28;;;26.69;53.57
33161;BME280;19522;45.656;11.302;2022-07-29T07:10:32;98252.59;;;26.88;52.58
33161;BME280;19522;45.656;11.302;2022-07-29T07:12:58;98255.13;;;27.23;51.63
33161;BME280;19522;45.656;11.302;2022-07-29T07:15:23;98262.31;;;27.62;50.19
33161;BME280;19522;45.656;11.302;2022-07-29T07:17:49;98249.06;;;28.01;48.89
33161;BME280;19522;45.656;11.302;2022-07-29T07:20:15;98222.19;;;27.91;47.99
33161;BME280;19522;45.656;11.302;2022-07-29T07:22:41;98243.84;;;28.27;46.63
33161;BME280;19522;45.656;11.302;2022-07-29T07:25:06;98245.03;;;28.63;44.22
33161;BME280;19522;45.656;11.302;2022-07-29T07:27:32;98244.44;;;29.03;41.90
33161;BME280;19522;45.656;11.302;2022-07-29T07:29:58;98246.94;;;29.04;42.34
33161;BME280;19522;45.656;11.302;2022-07-29T07:32:23;98243.75;;;29.34;42.37
33161;BME280;19522;45.656;11.302;2022-07-29T07:34:49;98258.44;;;29.62;40.72
33161;BME280;19522;45.656;11.302;2022-07-29T07:37:14;98262.75;;;29.77;42.12
33161;BME280;19522;45.656;11.302;2022-07-29T07:39:40;98250.91;;;29.72;42.23
33161;BME280;19522;45.656;11.302;2022-07-29T07:42:06;98271.09;;;29.91;42.63
33161;BME280;19522;45.656;11.302;2022-07-29T07:44:32;98248.41;;;29.70;39.84
33161;BME280;19522;45.656;11.302;2022-07-29T07:46:57;98245.84;;;29.51;40.62
33161;BME280;19522;45.656;11.302;2022-07-29T07:49:23;98267.00;;;29.43;39.63
33161;BME280;19522;45.656;11.302;2022-07-29T07:51:49;98246.50;;;29.11;39.03
33161;BME280;19522;45.656;11.302;2022-07-29T07:54:14;98236.34;;;29.15;39.06
33161;BME280;19522;45.656;11.302;2022-07-29T07:56:40;98262.38;;;29.61;39.19
33161;BME280;19522;45.656;11.302;2022-07-29T07:59:05;98244.47;;;29.94;38.80
33161;BME280;19522;45.656;11.302;2022-07-29T08:01:31;98260.72;;;29.92;38.67
33161;BME280;19522;45.656;11.302;2022-07-29T08:03:56;98235.19;;;29.62;39.36
33161;BME280;19522;45.656;11.302;2022-07-29T08:06:22;98225.53;;;29.00;39.11
33161;BME280;19522;45.656;11.302;2022-07-29T08:08:50;98245.28;;;29.03;39.30
33161;BME280;19522;45.656;11.302;2022-07-29T08:11:15;98252.06;;;29.11;39.53
33161;BME280;19522;45.656;11.302;2022-07-29T08:13:42;98253.06;;;28.92;38.67
33161;BME280;19522;45.656;11.302;2022-07-29T08:16:08;98261.63;;;28.73;38.51
33161;BME280;19522;45.656;11.302;2022-07-29T08:18:38;98262.44;;;28.74;38.36
33161;BME280;19522;45.656;11.302;2022-07-29T08:21:04;98246.38;;;28.80;39.68
33161;BME280;19522;45.656;11.302;2022-07-29T08:23:30;98258.94;;;29.05;38.87
33161;BME280;19522;45.656;11.302;2022-07-29T08:26:08;98250.16;;;28.98;39.19
33161;BME280;19522;45.656;11.302;2022-07-29T08:28:39;98243.78;;;29.20;38.73
33161;BME280;19522;45.656;11.302;2022-07-29T08:31:06;98248.13;;;29.49;39.57
33161;BME280;19522;45.656;11.302;2022-07-29T08:33:32;98230.16;;;29.27;39.18
33161;BME280;19522;45.656;11.302;2022-07-29T08:35:58;98252.25;;;29.29;40.13
33161;BME280;19522;45.656;11.302;2022-07-29T08:38:24;98247.63;;;29.10;40.07
33161;BME280;19522;45.656;11.302;2022-07-29T08:40:52;98241.78;;;28.98;40.40
33161;BME280;19522;45.656;11.302;2022-07-29T08:43:18;98234.44;;;28.88;41.02
33161;BME280;19522;45.656;11.302;2022-07-29T08:45:46;98244.84;;;29.10;41.22
33161;BME280;19522;45.656;11.302;2022-07-29T08:48:20;98227.28;;;28.96;40.98
33161;BME280;19522;45.656;11.302;2022-07-29T08:50:48;98234.69;;;29.14;39.75
33161;BME280;19522;45.656;11.302;2022-07-29T08:53:15;98217.91;;;29.14;39.97
33161;BME280;19522;45.656;11.302;2022-07-29T08:55:50;98232.06;;;29.18;40.53
33161;BME280;19522;45.656;11.302;2022-07-29T08:58:17;98241.41;;;29.13;39.68
33161;BME280;19522;45.656;11.302;2022-07-29T09:00:50;98242.59;;;28.98;41.06
33161;BME280;19522;45.656;11.302;2022-07-29T09:03:18;98227.88;;;28.84;41.80
33161;BME280;19522;45.656;11.302;2022-07-29T09:05:46;98227.72;;;28.89;41.13
33161;BME280;19522;45.656;11.302;2022-07-29T09:08:13;98251.50;;;29.00;41.47
33161;BME280;19522;45.656;11.302;2022-07-29T09:10:39;98245.91;;;29.00;40.88
33161;BME280;19522;45.656;11.302;2022-07-29T09:13:05;98244.69;;;28.92;41.73
33161;BME280;19522;45.656;11.302;2022-07-29T09:15:31;98227.00;;;28.83;42.00
33161;BME280;19522;45.656;11.302;2022-07-29T09:17:56;98228.13;;;28.96;41.70
33161;BME280;19522;45.656;11.302;2022-07-29T09:20:23;98226.28;;;29.14;41.34
33161;BME280;19522;45.656;11.302;2022-07-29T09:22:50;98200.38;;;29.00;41.55
33161;BME280;19522;45.656;11.302;2022-07-29T09:25:38;98197.19;;;28.92;41.35
33161;BME280;19522;45.656;11.302;2022-07-29T09:28:09;98232.66;;;29.29;41.19
33161;BME280;19522;45.656;11.302;2022-07-29T09:30:38;98225.97;;;29.16;41.26
33161;BME280;19522;45.656;11.302;2022-07-29T09:33:14;98195.69;;;29.09;42.26
33161;BME280;19522;45.656;11.302;2022-07-29T09:35:40;98226.03;;;29.70;41.60
33161;BME280;19522;45.656;11.302;2022-07-29T09:38:13;98223.31;;;29.56;41.15
33161;BME280;19522;45.656;11.302;2022-07-29T09:40:38;98234.03;;;29.85;41.26
33161;BME280;19522;45.656;11.302;2022-07-29T09:43:11;98226.13;;;29.88;40.52
33161;BME280;19522;45.656;11.302;2022-07-29T09:45:37;98216.47;;;29.62;41.48
33161;BME280;19522;45.656;11.302;2022-07-29T09:48:17;98233.56;;;29.61;40.41
33161;BME280;19522;45.656;11.302;2022-07-29T09:50:44;98220.78;;;29.77;41.90
33161;BME280;19522;45.656;11.302;2022-07-29T09:53:10;98210.91;;;30.03;40.05
33161;BME280;19522;45.656;11.302;2022-07-29T09:55:49;98197.00;;;30.29;40.68
33161;BME280;19522;45.656;11.302;2022-07-29T09:58:17;98207.81;;;30.13;40.06
33161;BME280;19522;45.656;11.302;2022-07-29T10:00:43;98186.84;;;30.02;39.56
33161;BME280;19522;45.656;11.302;2022-07-29T10:03:09;98191.81;;;29.73;41.25
33161;BME280;19522;45.656;11.302;2022-07-29T10:05:35;98200.25;;;30.13;40.95
33161;BME280;19522;45.656;11.302;2022-07-29T10:08:00;98195.28;;;30.10;40.63
33161;BME280;19522;45.656;11.302;2022-07-29T10:10:27;98196.28;;;30.06;41.15
33161;BME280;19522;45.656;11.302;2022-07-29T10:15:25;98183.47;;;29.82;40.77
33161;BME280;19522;45.656;11.302;2022-07-29T10:17:52;98193.78;;;29.73;40.81
33161;BME280;19522;45.656;11.302;2022-07-29T10:20:19;98206.78;;;30.00;41.27
33161;BME280;19522;45.656;11.302;2022-07-29T10:22:46;98204.56;;;30.20;40.84
33161;BME280;19522;45.656;11.302;2022-07-29T10:25:12;98197.19;;;30.50;41.26
33161;BME280;19522;45.656;11.302;2022-07-29T10:27:39;98205.25;;;30.34;40.41
33161;BME280;19522;45.656;11.302;2022-07-29T10:30:05;98187.28;;;30.35;40.65
33161;BME280;19522;45.656;11.302;2022-07-29T10:43:43;98186.69;;;30.47;41.17
33161;BME280;19522;45.656;11.302;2022-07-29T10:46:10;98168.75;;;30.57;40.31
33161;BME280;19522;45.656;11.302;2022-07-29T10:54:18;98170.56;;;30.79;39.70
33161;BME280;19522;45.656;11.302;2022-07-29T10:56:44;98179.47;;;30.90;39.75
33161;BME280;19522;45.656;11.302;2022-07-29T11:01:53;98154.09;;;30.86;40.15
33161;BME280;19522;45.656;11.302;2022-07-29T11:07:10;98108.25;;;30.82;39.22
33161;BME280;19522;45.656;11.302;2022-07-29T11:09:36;98148.66;;;30.90;39.46
33161;BME280;19522;45.656;11.302;2022-07-29T11:12:02;98159.19;;;31.02;39.96
33161;BME280;19522;45.656;11.302;2022-07-29T11:17:21;98166.25;;;31.08;39.03
33161;BME280;19522;45.656;11.302;2022-07-29T11:19:46;98156.06;;;30.95;38.92
33161;BME280;19522;45.656;11.302;2022-07-29T11:22:32;98129.34;;;31.15;39.28
33161;BME280;19522;45.656;11.302;2022-07-29T11:25:16;98146.38;;;31.75;39.00
33161;BME280;19522;45.656;11.302;2022-07-29T11:27:42;98138.34;;;31.47;38.64
33161;BME280;19522;45.656;11.302;2022-07-29T11:30:08;98129.44;;;31.53;39.06
33161;BME280;19522;45.656;11.302;2022-07-29T11:32:42;98097.44;;;31.46;38.27
33161;BME280;19522;45.656;11.302;2022-07-29T11:35:22;98146.50;;;31.87;38.73
33161;BME280;19522;45.656;11.302;2022-07-29T11:44:09;98138.28;;;31.64;40.11
33161;BME280;19522;45.656;11.302;2022-07-29T11:49:11;98133.31;;;31.79;37.48
33161;BME280;19522;45.656;11.302;2022-07-29T11:51:37;98140.22;;;31.81;37.88
33161;BME280;19522;45.656;11.302;2022-07-29T11:54:04;98140.59;;;31.62;37.66
33161;BME280;19522;45.656;11.302;2022-07-29T11:56:31;98134.50;;;31.60;38.77
33161;BME280;19522;45.656;11.302;2022-07-29T11:59:07;98114.09;;;31.90;37.67
33161;BME280;19522;45.656;11.302;2022-07-29T12:01:35;98111.72;;;32.00;38.65
33161;BME280;19522;45.656;11.302;2022-07-29T12:04:07;98132.47;;;32.17;38.73
33161;BME280;19522;45.656;11.302;2022-07-29T12:06:37;98128.50;;;31.79;37.83
33161;BME280;19522;45.656;11.302;2022-07-29T12:09:09;98132.38;;;31.57;38.92
33161;BME280;19522;45.656;11.302;2022-07-29T12:11:37;98066.38;;;31.51;38.66
33161;BME280;19522;45.656;11.302;2022-07-29T12:14:07;98117.34;;;31.62;38.11
33161;BME280;19522;45.656;11.302;2022-07-29T12:16:35;98089.25;;;31.23;39.13
33161;BME280;19522;45.656;11.302;2022-07-29T12:19:03;98113.53;;;31.66;39.19
33161;BME280;19522;45.656;11.302;2022-07-29T12:21:50;98119.94;;;31.67;38.50
33161;BME280;19522;45.656;11.302;2022-07-29T12:24:17;98091.66;;;31.42;38.99
33161;BME280;19522;45.656;11.302;2022-07-29T12:26:55;98113.69;;;31.61;38.00
33161;BME280;19522;45.656;11.302;2022-07-29T12:29:21;98110.94;;;32.21;38.69
33161;BME280;19522;45.656;11.302;2022-07-29T12:31:53;98089.34;;;32.13;37.30
33161;BME280;19522;45.656;11.302;2022-07-29T12:34:24;98113.44;;;31.93;37.27
33161;BME280;19522;45.656;11.302;2022-07-29T12:36:52;98099.22;;;31.50;38.34
33161;BME280;19522;45.656;11.302;2022-07-29T12:39:24;98088.91;;;31.07;39.26
33161;BME280;19522;45.656;11.302;2022-07-29T12:41:52;98093.56;;;30.94;39.61
33161;BME280;19522;45.656;11.302;2022-07-29T12:44:19;98089.75;;;31.07;39.87
33161;BME280;19522;45.656;11.302;2022-07-29T12:47:00;98083.53;;;31.11;39.37
33161;BME280;19522;45.656;11.302;2022-07-29T12:49:28;98085.22;;;31.42;39.06
33161;BME280;19522;45.656;11.302;2022-07-29T12:51:57;98102.69;;;31.47;38.52
33161;BME280;19522;45.656;11.302;2022-07-29T12:54:25;98096.19;;;31.73;39.16
33161;BME280;19522;45.656;11.302;2022-07-29T12:56:58;98051.06;;;31.87;37.45
33161;BME280;19522;45.656;11.302;2022-07-29T12:59:24;98077.53;;;31.98;37.71
33161;BME280;19522;45.656;11.302;2022-07-29T13:01:51;98094.34;;;32.07;37.87
33161;BME280;19522;45.656;11.302;2022-07-29T13:04:30;98088.38;;;32.39;36.41
33161;BME280;19522;45.656;11.302;2022-07-29T13:07:04;98086.81;;;32.50;36.51
33161;BME280;19522;45.656;11.302;2022-07-29T13:09:40;98088.22;;;32.35;36.21
33161;BME280;19522;45.656;11.302;2022-07-29T13:12:08;98082.03;;;32.21;37.30
33161;BME280;19522;45.656;11.302;2022-07-29T13:17:13;98049.84;;;32.60;35.32
33161;BME280;19522;45.656;11.302;2022-07-29T13:19:39;98061.00;;;32.90;35.69
33161;BME280;19522;45.656;11.302;2022-07-29T13:22:14;98059.56;;;32.63;35.30
33161;BME280;19522;45.656;11.302;2022-07-29T13:24:52;98039.03;;;32.08;35.74
33161;BME280;19522;45.656;11.302;2022-07-29T13:27:20;98046.97;;;32.48;35.62
33161;BME280;19522;45.656;11.302;2022-07-29T13:29:45;98034.22;;;32.72;35.48
33161;BME280;19522;45.656;11.302;2022-07-29T13:32:12;98046.22;;;32.81;35.36
33161;BME280;19522;45.656;11.302;2022-07-29T13:34:38;98018.09;;;32.81;35.30
33161;BME280;19522;45.656;11.302;2022-07-29T13:37:04;98037.84;;;33.06;34.72
33161;BME280;19522;45.656;11.302;2022-07-29T13:39:29;98022.19;;;32.50;34.90
33161;BME280;19522;45.656;11.302;2022-07-29T13:41:55;98026.09;;;32.91;34.66
33161;BME280;19522;45.656;11.302;2022-07-29T13:44:21;98012.97;;;32.83;35.52